sensor_id;sensor_type;location;lat;lon;timestamp;P1;durP1;ratioP1;P2;durP2;ratioP2
32106;SDS011;18622;51.998;10.440;2022-10-14T02:17:54;14.53;;;9.83;;
32106;SDS011;18622;51.998;10.440;2022-10-14T02:20:41;17.43;;;8.73;;
32106;SDS011;18622;51.998;10.440;2022-10-14T02:23:20;20.47;;;9.47;;
32106;SDS011;18622;51.998;10.440;2022-10-14T02:25:50;12.17;;;8.63;;
32106;SDS011;18622;51.998;10.440;2022-10-14T02:28:20;17.15;;;10.50;;
32106;SDS011;18622;51.998;10.440;2022-10-14T02:33:23;17.25;;;8.33;;
32106;SDS011;18622;51.998;10.440;2022-10-14T02:35:53;17.20;;;9.20;;
32106;SDS011;18622;51.998;10.440;2022-10-14T02:38:21;19.48;;;9.98;;
32106;SDS011;18622;51.998;10.440;2022-10-14T02:40:51;20.40;;;8.98;;
32106;SDS011;18622;51.998;10.440;2022-10-14T02:43:19;14.40;;;9.50;;
32106;SDS011;18622;51.998;10.440;2022-10-14T02:45:47;14.80;;;9.97;;
32106;SDS011;18622;51.998;10.440;2022-10-14T02:48:15;19.93;;;9.87;;
32106;SDS011;18622;51.998;10.440;2022-10-14T02:50:43;16.07;;;9.63;;
32106;SDS011;18622;51.998;10.440;2022-10-14T02:53:10;14.90;;;9.43;;
32106;SDS011;18622;51.998;10.440;2022-10-14T02:55:40;18.77;;;10.23;;
32106;SDS011;18622;51.998;10.440;2022-10-14T02:58:08;14.00;;;9.23;;
32106;SDS011;18622;51.998;10.440;2022-10-14T03:34:17;22.50;;;13.05;;
32106;SDS011;18622;51.998;10.440;2022-10-14T03:36:45;21.07;;;11.97;;
32106;SDS011;18622;51.998;10.440;2022-10-14T03:39:13;21.67;;;12.17;;
32106;SDS011;18622;51.998;10.440;2022-10-14T03:41:40;21.67;;;11.73;;
32106;SDS011;18622;51.998;10.440;2022-10-14T03:44:09;17.03;;;12.07;;
32106;SDS011;18622;51.998;10.440;2022-10-14T03:49:05;18.27;;;12.55;;
32106;SDS011;18622;51.998;10.440;2022-10-14T03:51:33;22.37;;;12.90;;
32106;SDS011;18622;51.998;10.440;2022-10-14T03:54:01;16.50;;;11.87;;
32106;SDS011;18622;51.998;10.440;2022-10-14T03:56:29;16.33;;;10.90;;
32106;SDS011;18622;51.998;10.440;2022-10-14T03:58:57;18.37;;;12.10;;
32106;SDS011;18622;51.998;10.440;2022-10-14T04:01:25;17.20;;;11.07;;
32106;SDS011;18622;51.998;10.440;2022-10-14T04:03:52;19.87;;;11.10;;
32106;SDS011;18622;51.998;10.440;2022-10-14T04:06:20;15.23;;;10.57;;
32106;SDS011;18622;51.998;10.440;2022-10-14T04:08:48;16.47;;;10.43;;
32106;SDS011;18622;51.998;10.440;2022-10-14T04:11:17;21.57;;;11.57;;
32106;SDS011;18622;51.998;10.440;2022-10-14T04:13:44;18.15;;;10.48;;
32106;SDS011;18622;51.998;10.440;2022-10-14T04:16:12;14.97;;;10.30;;
32106;SDS011;18622;51.998;10.440;2022-10-14T04:18:40;11.80;;;8.73;;
32106;SDS011;18622;51.998;10.440;2022-10-14T04:21:09;16.73;;;9.53;;
32106;SDS011;18622;51.998;10.440;2022-10-14T04:23:38;13.43;;;9.80;;
32106;SDS011;18622;51.998;10.440;2022-10-14T04:26:06;13.90;;;9.13;;
32106;SDS011;18622;51.998;10.440;2022-10-14T04:28:34;11.15;;;9.15;;
32106;SDS011;18622;51.998;10.440;2022-10-14T04:31:02;14.07;;;9.35;;
32106;SDS011;18622;51.998;10.440;2022-10-14T04:33:31;13.65;;;9.48;;
32106;SDS011;18622;51.998;10.440;2022-10-14T04:36:00;12.68;;;9.15;;
32106;SDS011;18622;51.998;10.440;2022-10-14T04:38:30;12.30;;;8.77;;
32106;SDS011;18622;51.998;10.440;2022-10-14T04:40:58;16.20;;;8.90;;
32106;SDS011;18622;51.998;10.440;2022-10-14T04:43:26;15.70;;;9.07;;
32106;SDS011;18622;51.998;10.440;2022-10-14T04:45:54;14.37;;;9.97;;
32106;SDS011;18622;51.998;10.440;2022-10-14T04:48:22;13.47;;;9.27;;
32106;SDS011;18622;51.998;10.440;2022-10-14T04:50:50;17.60;;;9.57;;
32106;SDS011;18622;51.998;10.440;2022-10-14T04:53:19;13.53;;;8.97;;
32106;SDS011;18622;51.998;10.440;2022-10-14T04:55:47;15.45;;;9.93;;
32106;SDS011;18622;51.998;10.440;2022-10-14T04:58:16;12.82;;;8.98;;
32106;SDS011;18622;51.998;10.440;2022-10-14T05:00:44;18.23;;;9.20;;
32106;SDS011;18622;51.998;10.440;2022-10-14T05:03:12;12.70;;;7.60;;
32106;SDS011;18622;51.998;10.440;2022-10-14T05:05:40;12.90;;;8.80;;
32106;SDS011;18622;51.998;10.440;2022-10-14T05:08:08;14.43;;;7.73;;
32106;SDS011;18622;51.998;10.440;2022-10-14T05:10:35;11.63;;;8.07;;
32106;SDS011;18622;51.998;10.440;2022-10-14T05:13:03;12.13;;;7.23;;
32106;SDS011;18622;51.998;10.440;2022-10-14T09:04:24;3.00;;;2.37;;
32106;SDS011;18622;51.998;10.440;2022-10-14T09:06:52;3.17;;;2.67;;
32106;SDS011;18622;51.998;10.440;2022-10-14T09:09:24;5.27;;;2.63;;
32106;SDS011;18622;51.998;10.440;2022-10-14T09:11:55;3.00;;;2.33;;
32106;SDS011;18622;51.998;10.440;2022-10-14T09:17:11;4.20;;;2.40;;
32106;SDS011;18622;51.998;10.440;2022-10-14T09:19:54;5.13;;;2.10;;
32106;SDS011;18622;51.998;10.440;2022-10-14T09:22:19;4.37;;;2.07;;
32106;SDS011;18622;51.998;10.440;2022-10-14T09:24:47;2.60;;;1.87;;
32106;SDS011;18622;51.998;10.440;2022-10-14T09:27:15;2.77;;;1.83;;
32106;SDS011;18622;51.998;10.440;2022-10-14T09:29:53;1.80;;;1.60;;
32106;SDS011;18622;51.998;10.440;2022-10-14T09:32:39;5.37;;;2.17;;
32106;SDS011;18622;51.998;10.440;2022-10-14T09:35:17;3.73;;;1.87;;
32106;SDS011;18622;51.998;10.440;2022-10-14T09:37:53;2.50;;;1.80;;
32106;SDS011;18622;51.998;10.440;2022-10-14T09:40:26;3.93;;;1.87;;
32106;SDS011;18622;51.998;10.440;2022-10-14T09:48:29;3.37;;;1.80;;
32106;SDS011;18622;51.998;10.440;2022-10-14T09:51:16;2.10;;;1.57;;
32106;SDS011;18622;51.998;10.440;2022-10-14T09:54:01;3.43;;;2.07;;
32106;SDS011;18622;51.998;10.440;2022-10-14T09:56:27;4.08;;;2.37;;
32106;SDS011;18622;51.998;10.440;2022-10-14T09:59:01;1.97;;;1.60;;
32106;SDS011;18622;51.998;10.440;2022-10-14T10:01:38;3.05;;;1.62;;
32106;SDS011;18622;51.998;10.440;2022-10-14T10:04:23;3.77;;;1.90;;
32106;SDS011;18622;51.998;10.440;2022-10-14T10:07:00;13.20;;;2.00;;
32106;SDS011;18622;51.998;10.440;2022-10-14T10:09:31;1.70;;;1.20;;
32106;SDS011;18622;51.998;10.440;2022-10-14T10:11:59;4.35;;;1.67;;
32106;SDS011;18622;51.998;10.440;2022-10-14T10:19:43;2.07;;;1.50;;
32106;SDS011;18622;51.998;10.440;2022-10-14T10:27:33;4.07;;;1.73;;
32106;SDS011;18622;51.998;10.440;2022-10-14T10:38:19;2.10;;;1.47;;
32106;SDS011;18622;51.998;10.440;2022-10-14T10:48:42;4.40;;;1.80;;
32106;SDS011;18622;51.998;10.440;2022-10-14T10:51:36;1.97;;;1.17;;
32106;SDS011;18622;51.998;10.440;2022-10-14T10:57:01;5.25;;;1.12;;
32106;SDS011;18622;51.998;10.440;2022-10-14T10:59:34;1.97;;;1.20;;
32106;SDS011;18622;51.998;10.440;2022-10-14T12:30:43;1.20;;;1.10;;
32106;SDS011;18622;51.998;10.440;2022-10-14T12:33:12;2.52;;;1.00;;
32106;SDS011;18622;51.998;10.440;2022-10-14T12:38:26;1.13;;;0.80;;
32106;SDS011;18622;51.998;10.440;2022-10-14T12:46:30;3.55;;;0.90;;
32106;SDS011;18622;51.998;10.440;2022-10-14T12:49:00;7.63;;;1.70;;
32106;SDS011;18622;51.998;10.440;2022-10-14T12:51:29;15.48;;;2.80;;
32106;SDS011;18622;51.998;10.440;2022-10-14T12:54:02;12.37;;;1.40;;
32106;SDS011;18622;51.998;10.440;2022-10-14T12:56:35;1.37;;;0.77;;
32106;SDS011;18622;51.998;10.440;2022-10-14T12:59:20;0.73;;;0.73;;
32106;SDS011;18622;51.998;10.440;2022-10-14T13:02:02;1.25;;;0.80;;
32106;SDS011;18622;51.998;10.440;2022-10-14T13:04:33;4.47;;;0.97;;
32106;SDS011;18622;51.998;10.440;2022-10-14T13:09:44;2.23;;;0.80;;
32106;SDS011;18622;51.998;10.440;2022-10-14T13:17:28;8.03;;;1.30;;
32106;SDS011;18622;51.998;10.440;2022-10-14T13:19:57;6.60;;;1.90;;
32106;SDS011;18622;51.998;10.440;2022-10-14T13:25:16;12.30;;;2.07;;
32106;SDS011;18622;51.998;10.440;2022-10-14T13:27:46;2.30;;;1.03;;
32106;SDS011;18622;51.998;10.440;2022-10-14T13:33:21;1.20;;;0.72;;
32106;SDS011;18622;51.998;10.440;2022-10-14T13:35:59;7.23;;;1.40;;
32106;SDS011;18622;51.998;10.440;2022-10-14T13:38:46;149.73;;;9.03;;
32106;SDS011;18622;51.998;10.440;2022-10-14T13:41:24;15.90;;;2.60;;
32106;SDS011;18622;51.998;10.440;2022-10-14T13:43:55;1.92;;;0.80;;
32106;SDS011;18622;51.998;10.440;2022-10-14T13:46:30;8.48;;;2.02;;
32106;SDS011;18622;51.998;10.440;2022-10-14T13:48:59;3.00;;;1.30;;
32106;SDS011;18622;51.998;10.440;2022-10-14T13:59:29;3.07;;;1.17;;
32106;SDS011;18622;51.998;10.440;2022-10-14T14:01:59;3.02;;;1.00;;
32106;SDS011;18622;51.998;10.440;2022-10-14T14:04:31;4.85;;;2.30;;
32106;SDS011;18622;51.998;10.440;2022-10-14T14:07:00;4.85;;;1.17;;
32106;SDS011;18622;51.998;10.440;2022-10-14T14:09:28;11.97;;;2.50;;
32106;SDS011;18622;51.998;10.440;2022-10-14T14:11:58;2.85;;;1.75;;
32106;SDS011;18622;51.998;10.440;2022-10-14T14:14:39;3.42;;;1.90;;
32106;SDS011;18622;51.998;10.440;2022-10-14T14:17:17;1.90;;;1.22;;
32106;SDS011;18622;51.998;10.440;2022-10-14T14:19:44;1.10;;;1.00;;
32106;SDS011;18622;51.998;10.440;2022-10-14T14:24:45;12.97;;;2.20;;
32106;SDS011;18622;51.998;10.440;2022-10-14T14:27:19;3.20;;;1.80;;
32106;SDS011;18622;51.998;10.440;2022-10-14T14:29:44;2.42;;;1.20;;
32106;SDS011;18622;51.998;10.440;2022-10-14T14:32:18;7.72;;;1.77;;
32106;SDS011;18622;51.998;10.440;2022-10-14T14:34:48;2.53;;;1.50;;
32106;SDS011;18622;51.998;10.440;2022-10-14T14:37:23;3.47;;;1.75;;
32106;SDS011;18622;51.998;10.440;2022-10-14T14:42:31;8.43;;;2.30;;
32106;SDS011;18622;51.998;10.440;2022-10-14T14:45:09;3.58;;;1.47;;
32106;SDS011;18622;51.998;10.440;2022-10-14T14:47:31;2.08;;;1.55;;
32106;SDS011;18622;51.998;10.440;2022-10-14T14:49:59;5.30;;;1.63;;
32106;SDS011;18622;51.998;10.440;2022-10-14T14:52:28;5.70;;;1.60;;
32106;SDS011;18622;51.998;10.440;2022-10-14T14:54:56;2.53;;;1.33;;
32106;SDS011;18622;51.998;10.440;2022-10-14T14:57:24;2.67;;;1.60;;
32106;SDS011;18622;51.998;10.440;2022-10-14T14:59:58;3.47;;;1.57;;
32106;SDS011;18622;51.998;10.440;2022-10-14T15:02:24;3.10;;;1.90;;
32106;SDS011;18622;51.998;10.440;2022-10-14T15:05:02;4.03;;;1.90;;
32106;SDS011;18622;51.998;10.440;2022-10-14T15:10:00;3.10;;;1.87;;
32106;SDS011;18622;51.998;10.440;2022-10-14T15:12:33;2.67;;;1.62;;
32106;SDS011;18622;51.998;10.440;2022-10-14T15:15:05;5.67;;;2.02;;
32106;SDS011;18622;51.998;10.440;2022-10-14T15:17:39;2.27;;;2.07;;
32106;SDS011;18622;51.998;10.440;2022-10-14T15:22:47;4.67;;;1.90;;
32106;SDS011;18622;51.998;10.440;2022-10-14T15:28:01;3.10;;;1.60;;
32106;SDS011;18622;51.998;10.440;2022-10-14T15:33:01;3.60;;;1.90;;
32106;SDS011;18622;51.998;10.440;2022-10-14T15:35:44;3.73;;;2.90;;
32106;SDS011;18622;51.998;10.440;2022-10-14T15:38:14;10.98;;;3.50;;
32106;SDS011;18622;51.998;10.440;2022-10-14T15:40:44;3.83;;;3.02;;
32106;SDS011;18622;51.998;10.440;2022-10-14T15:43:18;6.75;;;2.85;;
32106;SDS011;18622;51.998;10.440;2022-10-14T15:45:47;3.03;;;2.20;;
32106;SDS011;18622;51.998;10.440;2022-10-14T15:48:18;5.65;;;2.35;;
32106;SDS011;18622;51.998;10.440;2022-10-14T15:50:46;10.70;;;2.90;;
32106;SDS011;18622;51.998;10.440;2022-10-14T15:53:15;3.47;;;2.30;;
32106;SDS011;18622;51.998;10.440;2022-10-14T15:55:44;6.22;;;3.00;;
32106;SDS011;18622;51.998;10.440;2022-10-14T15:58:12;5.20;;;2.50;;
32106;SDS011;18622;51.998;10.440;2022-10-14T16:00:40;6.03;;;2.37;;
32106;SDS011;18622;51.998;10.440;2022-10-14T16:03:08;2.30;;;2.10;;
32106;SDS011;18622;51.998;10.440;2022-10-14T16:05:36;8.90;;;3.03;;
32106;SDS011;18622;51.998;10.440;2022-10-14T16:08:09;20.30;;;9.68;;
32106;SDS011;18622;51.998;10.440;2022-10-14T16:10:43;25.67;;;12.83;;
32106;SDS011;18622;51.998;10.440;2022-10-14T16:13:12;16.37;;;10.10;;
32106;SDS011;18622;51.998;10.440;2022-10-14T16:15:52;29.87;;;13.72;;
32106;SDS011;18622;51.998;10.440;2022-10-14T16:18:18;48.37;;;23.37;;
32106;SDS011;18622;51.998;10.440;2022-10-14T16:20:50;66.20;;;30.93;;
32106;SDS011;18622;51.998;10.440;2022-10-14T16:23:19;50.20;;;23.38;;
32106;SDS011;18622;51.998;10.440;2022-10-14T16:25:49;33.73;;;15.83;;
32106;SDS011;18622;51.998;10.440;2022-10-14T16:28:18;60.23;;;23.90;;
32106;SDS011;18622;51.998;10.440;2022-10-14T16:30:47;35.20;;;17.90;;
32106;SDS011;18622;51.998;10.440;2022-10-14T16:33:15;29.52;;;15.25;;
32106;SDS011;18622;51.998;10.440;2022-10-14T16:35:45;35.98;;;16.20;;
32106;SDS011;18622;51.998;10.440;2022-10-14T16:38:15;21.82;;;12.18;;
32106;SDS011;18622;51.998;10.440;2022-10-14T16:40:43;19.13;;;11.40;;
32106;SDS011;18622;51.998;10.440;2022-10-14T16:43:11;18.73;;;8.40;;
32106;SDS011;18622;51.998;10.440;2022-10-14T16:45:38;21.97;;;13.80;;
32106;SDS011;18622;51.998;10.440;2022-10-14T16:48:06;36.57;;;18.97;;
32106;SDS011;18622;51.998;10.440;2022-10-14T16:50:34;26.97;;;16.00;;
32106;SDS011;18622;51.998;10.440;2022-10-14T16:53:02;32.77;;;17.13;;
32106;SDS011;18622;51.998;10.440;2022-10-14T16:55:47;15.83;;;10.57;;
32106;SDS011;18622;51.998;10.440;2022-10-14T16:58:15;23.67;;;11.30;;
32106;SDS011;18622;51.998;10.440;2022-10-14T17:00:43;11.77;;;6.83;;
32106;SDS011;18622;51.998;10.440;2022-10-14T17:03:11;9.97;;;5.70;;
32106;SDS011;18622;51.998;10.440;2022-10-14T17:05:39;15.53;;;7.00;;
32106;SDS011;18622;51.998;10.440;2022-10-14T17:08:07;21.03;;;13.13;;
32106;SDS011;18622;51.998;10.440;2022-10-14T17:10:36;10.25;;;6.40;;
32106;SDS011;18622;51.998;10.440;2022-10-14T17:13:05;11.57;;;5.87;;
32106;SDS011;18622;51.998;10.440;2022-10-14T17:15:33;7.43;;;3.53;;
32106;SDS011;18622;51.998;10.440;2022-10-14T17:18:01;8.67;;;3.40;;
32106;SDS011;18622;51.998;10.440;2022-10-14T17:20:29;10.57;;;2.70;;
32106;SDS011;18622;51.998;10.440;2022-10-14T17:22:57;7.43;;;4.57;;
32106;SDS011;18622;51.998;10.440;2022-10-14T17:25:25;10.53;;;3.85;;
32106;SDS011;18622;51.998;10.440;2022-10-14T17:27:53;6.30;;;3.30;;
32106;SDS011;18622;51.998;10.440;2022-10-14T17:30:21;5.20;;;2.87;;
32106;SDS011;18622;51.998;10.440;2022-10-14T17:32:48;8.27;;;2.57;;
32106;SDS011;18622;51.998;10.440;2022-10-14T17:35:16;3.60;;;2.47;;
32106;SDS011;18622;51.998;10.440;2022-10-14T17:37:44;6.37;;;2.50;;
32106;SDS011;18622;51.998;10.440;2022-10-14T17:40:12;3.40;;;2.60;;
32106;SDS011;18622;51.998;10.440;2022-10-14T17:42:40;4.93;;;2.50;;
32106;SDS011;18622;51.998;10.440;2022-10-14T17:45:08;8.70;;;3.17;;
32106;SDS011;18622;51.998;10.440;2022-10-14T17:47:36;5.40;;;2.83;;
32106;SDS011;18622;51.998;10.440;2022-10-14T17:50:04;3.73;;;2.53;;
32106;SDS011;18622;51.998;10.440;2022-10-14T17:52:33;6.55;;;2.60;;
32106;SDS011;18622;51.998;10.440;2022-10-14T17:55:01;11.07;;;3.63;;
32106;SDS011;18622;51.998;10.440;2022-10-14T17:57:29;8.10;;;3.30;;
32106;SDS011;18622;51.998;10.440;2022-10-14T17:59:57;7.13;;;3.17;;
32106;SDS011;18622;51.998;10.440;2022-10-14T18:02:25;11.67;;;2.83;;
32106;SDS011;18622;51.998;10.440;2022-10-14T18:04:53;6.83;;;3.37;;
32106;SDS011;18622;51.998;10.440;2022-10-14T18:07:21;4.60;;;3.23;;
32106;SDS011;18622;51.998;10.440;2022-10-14T18:09:48;7.80;;;3.33;;
32106;SDS011;18622;51.998;10.440;2022-10-14T18:12:16;11.20;;;3.23;;
32106;SDS011;18622;51.998;10.440;2022-10-14T18:14:45;7.50;;;3.10;;
32106;SDS011;18622;51.998;10.440;2022-10-14T18:17:13;9.03;;;3.73;;
32106;SDS011;18622;51.998;10.440;2022-10-14T18:19:41;12.93;;;4.53;;
32106;SDS011;18622;51.998;10.440;2022-10-14T18:22:08;7.17;;;3.77;;
32106;SDS011;18622;51.998;10.440;2022-10-14T18:24:36;10.60;;;3.60;;
32106;SDS011;18622;51.998;10.440;2022-10-14T18:27:04;5.20;;;3.27;;
32106;SDS011;18622;51.998;10.440;2022-10-14T18:29:32;2.97;;;2.20;;
32106;SDS011;18622;51.998;10.440;2022-10-14T18:32:00;4.80;;;2.70;;
32106;SDS011;18622;51.998;10.440;2022-10-14T18:34:28;5.40;;;2.20;;
32106;SDS011;18622;51.998;10.440;2022-10-14T18:36:56;7.22;;;3.50;;
32106;SDS011;18622;51.998;10.440;2022-10-14T18:39:24;9.00;;;4.77;;
32106;SDS011;18622;51.998;10.440;2022-10-14T18:41:52;12.80;;;3.30;;
32106;SDS011;18622;51.998;10.440;2022-10-14T18:44:19;5.53;;;3.03;;
32106;SDS011;18622;51.998;10.440;2022-10-14T18:49:16;10.93;;;5.67;;
32106;SDS011;18622;51.998;10.440;2022-10-14T18:51:44;12.47;;;4.57;;
32106;SDS011;18622;51.998;10.440;2022-10-14T18:54:13;13.47;;;6.33;;
32106;SDS011;18622;51.998;10.440;2022-10-14T18:56:42;9.83;;;4.90;;
32106;SDS011;18622;51.998;10.440;2022-10-14T18:59:12;6.83;;;3.87;;
32106;SDS011;18622;51.998;10.440;2022-10-14T19:01:42;4.83;;;3.10;;
32106;SDS011;18622;51.998;10.440;2022-10-14T19:04:11;5.13;;;2.50;;
32106;SDS011;18622;51.998;10.440;2022-10-14T19:06:41;5.08;;;2.98;;
32106;SDS011;18622;51.998;10.440;2022-10-14T19:09:10;7.92;;;2.95;;
32106;SDS011;18622;51.998;10.440;2022-10-14T19:11:38;7.50;;;3.20;;
32106;SDS011;18622;51.998;10.440;2022-10-14T19:14:07;5.70;;;2.47;;
32106;SDS011;18622;51.998;10.440;2022-10-14T19:16:36;4.28;;;2.75;;
32106;SDS011;18622;51.998;10.440;2022-10-14T19:19:05;7.40;;;4.00;;
32106;SDS011;18622;51.998;10.440;2022-10-14T19:21:37;6.50;;;3.33;;
32106;SDS011;18622;51.998;10.440;2022-10-14T19:24:05;5.83;;;3.20;;
32106;SDS011;18622;51.998;10.440;2022-10-14T19:26:37;7.72;;;2.58;;
32106;SDS011;18622;51.998;10.440;2022-10-14T19:29:06;7.33;;;3.72;;
32106;SDS011;18622;51.998;10.440;2022-10-14T19:31:36;4.47;;;2.43;;
32106;SDS011;18622;51.998;10.440;2022-10-14T19:34:06;7.03;;;3.05;;
32106;SDS011;18622;51.998;10.440;2022-10-14T19:36:36;5.42;;;3.50;;
32106;SDS011;18622;51.998;10.440;2022-10-14T19:39:05;5.97;;;3.25;;
32106;SDS011;18622;51.998;10.440;2022-10-14T19:41:35;3.45;;;2.75;;
32106;SDS011;18622;51.998;10.440;2022-10-14T19:44:11;8.07;;;3.43;;
32106;SDS011;18622;51.998;10.440;2022-10-14T19:46:40;7.55;;;3.17;;
32106;SDS011;18622;51.998;10.440;2022-10-14T19:49:09;4.92;;;3.35;;
32106;SDS011;18622;51.998;10.440;2022-10-14T19:51:39;9.10;;;3.77;;
32106;SDS011;18622;51.998;10.440;2022-10-14T19:54:07;8.27;;;3.40;;
32106;SDS011;18622;51.998;10.440;2022-10-14T19:56:36;7.60;;;3.45;;
32106;SDS011;18622;51.998;10.440;2022-10-14T19:59:04;3.90;;;2.57;;
32106;SDS011;18622;51.998;10.440;2022-10-14T20:01:32;5.37;;;3.63;;
32106;SDS011;18622;51.998;10.440;2022-10-14T20:04:01;10.13;;;3.60;;
32106;SDS011;18622;51.998;10.440;2022-10-14T20:06:29;6.53;;;3.12;;
32106;SDS011;18622;51.998;10.440;2022-10-14T20:08:59;7.45;;;3.08;;
32106;SDS011;18622;51.998;10.440;2022-10-14T20:11:28;6.83;;;3.23;;
32106;SDS011;18622;51.998;10.440;2022-10-14T20:13:56;6.42;;;3.08;;
32106;SDS011;18622;51.998;10.440;2022-10-14T20:16:24;4.90;;;2.97;;
32106;SDS011;18622;51.998;10.440;2022-10-14T20:18:52;4.20;;;2.67;;
32106;SDS011;18622;51.998;10.440;2022-10-14T20:21:20;5.22;;;3.12;;
32106;SDS011;18622;51.998;10.440;2022-10-14T20:23:48;6.50;;;3.67;;
32106;SDS011;18622;51.998;10.440;2022-10-14T20:26:17;4.60;;;3.47;;
32106;SDS011;18622;51.998;10.440;2022-10-14T20:31:16;3.40;;;2.70;;
32106;SDS011;18622;51.998;10.440;2022-10-14T20:33:49;4.57;;;2.40;;
32106;SDS011;18622;51.998;10.440;2022-10-14T20:36:18;5.23;;;2.57;;
32106;SDS011;18622;51.998;10.440;2022-10-14T20:38:47;3.70;;;3.00;;
32106;SDS011;18622;51.998;10.440;2022-10-14T20:41:22;3.33;;;2.27;;
32106;SDS011;18622;51.998;10.440;2022-10-14T20:43:52;2.77;;;2.47;;
32106;SDS011;18622;51.998;10.440;2022-10-14T20:46:20;6.10;;;2.93;;
32106;SDS011;18622;51.998;10.440;2022-10-14T20:48:55;2.35;;;1.82;;
32106;SDS011;18622;51.998;10.440;2022-10-14T20:51:24;4.10;;;1.87;;
32106;SDS011;18622;51.998;10.440;2022-10-14T20:53:55;2.27;;;1.82;;
32106;SDS011;18622;51.998;10.440;2022-10-14T20:56:24;2.33;;;2.10;;
32106;SDS011;18622;51.998;10.440;2022-10-14T20:58:53;3.10;;;2.20;;
32106;SDS011;18622;51.998;10.440;2022-10-14T21:01:22;4.60;;;2.20;;
32106;SDS011;18622;51.998;10.440;2022-10-14T21:03:50;3.35;;;2.12;;
32106;SDS011;18622;51.998;10.440;2022-10-14T21:06:21;4.65;;;2.00;;
32106;SDS011;18622;51.998;10.440;2022-10-14T21:08:49;2.23;;;2.03;;
32106;SDS011;18622;51.998;10.440;2022-10-14T21:11:20;4.28;;;2.17;;
32106;SDS011;18622;51.998;10.440;2022-10-14T21:13:49;2.47;;;2.12;;
32106;SDS011;18622;51.998;10.440;2022-10-14T21:16:24;2.53;;;1.83;;
32106;SDS011;18622;51.998;10.440;2022-10-14T21:18:50;2.37;;;2.17;;
32106;SDS011;18622;51.998;10.440;2022-10-14T21:21:28;3.60;;;2.20;;
32106;SDS011;18622;51.998;10.440;2022-10-14T21:23:54;3.27;;;2.40;;
32106;SDS011;18622;51.998;10.440;2022-10-14T21:26:24;5.50;;;2.80;;
32106;SDS011;18622;51.998;10.440;2022-10-14T21:28:52;5.43;;;2.33;;
32106;SDS011;18622;51.998;10.440;2022-10-14T21:31:20;4.13;;;2.20;;
32106;SDS011;18622;51.998;10.440;2022-10-14T21:33:57;8.68;;;2.17;;
32106;SDS011;18622;51.998;10.440;2022-10-14T21:36:21;5.43;;;2.70;;
32106;SDS011;18622;51.998;10.440;2022-10-14T21:38:49;3.10;;;2.20;;
32106;SDS011;18622;51.998;10.440;2022-10-14T21:41:21;4.28;;;2.30;;
32106;SDS011;18622;51.998;10.440;2022-10-14T21:43:50;2.60;;;2.40;;
